Main page
METAR-TAF:

METAR-TAF

Airports :

Pisa, Italy

Pisa International Airport

latitude: 43-41N, longitude: 010-23E, elevation: 2 m

Current weather observation

The report was made 1 hour and 3 minutes ago, at 00:45 UTC
Wind 7 kt from the East/Southeast
Temperature 15°C
Humidity 88%
Pressure 1019 hPa
Visibility 10 km or more
no clouds below 1500 m and no cumulonimbus

METAR: LIRP 260045Z 12007KT CAVOK 15/13 Q1019 NOSIG

Time: 03:48 (01:48 UTC)

Forecast

The report was made 2 hours and 48 minutes ago, at 23:00 UTC
Forecast valid from 26 at 00 UTC to 26 at 24 UTC
Wind 7 kt from the East/Southeast
Visibility 10 km or more
Few clouds at a height of 6000 ft

TAF: LIRP 252300Z 2600/2624 11007KT 9999 FEW060

Weather observations and forecasts of more than 4000 airports (METAR and TAF reports).

The available stations are represented by yellow and red dots on the map.

Hover mouse over dot to see the name of the station.

Then click to see weather observations and forecasts.

To change the map : click on the green buttons with a black cross to zoom in, on the green button with a dash to zoom out, or on the green arrows for adjacent maps.


METAR-TAF: